createdAt,value
2023-12-08T00:00:21.521Z,19.13
2023-12-08T00:02:49.087Z,17.77
2023-12-08T00:05:16.937Z,18.75
2023-12-08T00:07:45.356Z,18.13
2023-12-08T00:10:21.716Z,20.95
2023-12-08T00:12:51.453Z,19.13
2023-12-08T00:15:19.148Z,16.73
2023-12-08T00:17:46.870Z,16.67
2023-12-08T00:20:15.087Z,16.48
2023-12-08T00:22:42.684Z,16.15
2023-12-08T00:25:10.512Z,16.65
2023-12-08T00:27:38.567Z,16.27
2023-12-08T00:30:09.427Z,16.50
2023-12-08T00:32:55.635Z,16.90
2023-12-08T00:35:23.789Z,17.13
2023-12-08T00:37:51.386Z,16.75
2023-12-08T00:40:19.223Z,16.35
2023-12-08T00:42:46.631Z,16.40
2023-12-08T00:45:19.504Z,16.38
2023-12-08T00:47:47.245Z,17.08
2023-12-08T00:50:14.957Z,15.70
2023-12-08T00:52:43.087Z,16.10
2023-12-08T00:55:11.284Z,16.23
2023-12-08T00:57:39.313Z,17.30
2023-12-08T01:00:12.998Z,15.23
2023-12-08T01:02:53.775Z,15.77
2023-12-08T01:05:24.773Z,16.23
2023-12-08T01:07:52.648Z,15.50
2023-12-08T01:10:20.794Z,15.55
2023-12-08T01:12:49.717Z,15.05
2023-12-08T01:15:20.630Z,16.00
2023-12-08T01:17:50.194Z,15.82
2023-12-08T01:20:18.182Z,15.95
2023-12-08T01:22:47.105Z,15.45
2023-12-08T01:25:16.929Z,15.20
2023-12-08T01:28:31.183Z,15.63
2023-12-08T01:34:31.508Z,14.70
2023-12-08T01:37:05.331Z,15.05
2023-12-08T01:39:52.892Z,14.85
2023-12-08T01:42:31.810Z,14.20
2023-12-08T01:45:20.601Z,14.73
2023-12-08T01:48:01.816Z,15.75
2023-12-08T01:50:40.112Z,15.13
2023-12-08T01:53:26.742Z,16.17
2023-12-08T01:56:03.071Z,17.02
2023-12-08T02:01:21.580Z,17.55
2023-12-08T02:03:57.307Z,18.40
2023-12-08T02:06:38.492Z,16.20
2023-12-08T02:09:30.215Z,16.13
2023-12-08T02:12:02.242Z,15.05
2023-12-08T02:14:29.999Z,13.73
2023-12-08T02:17:09.861Z,15.40
2023-12-08T02:19:43.390Z,15.35
2023-12-08T02:22:11.765Z,15.80
2023-12-08T02:24:41.588Z,15.15
2023-12-08T02:27:09.357Z,14.48
2023-12-08T02:29:38.976Z,15.90
2023-12-08T02:32:10.297Z,16.15
2023-12-08T02:34:37.843Z,16.17
2023-12-08T02:37:06.907Z,15.85
2023-12-08T02:39:37.191Z,16.35
2023-12-08T02:42:07.152Z,15.90
2023-12-08T02:44:40.118Z,14.73
2023-12-08T02:47:11.778Z,15.10
2023-12-08T02:49:39.451Z,14.88
2023-12-08T02:52:07.973Z,13.82
2023-12-08T02:54:36.165Z,14.50
2023-12-08T02:57:05.708Z,15.32
2023-12-08T02:59:33.661Z,14.75
2023-12-08T03:02:03.356Z,16.08
2023-12-08T03:04:37.442Z,15.90
2023-12-08T03:07:15.152Z,16.55
2023-12-08T03:09:43.413Z,16.05
2023-12-08T03:12:28.795Z,17.05
2023-12-08T03:17:20.193Z,17.80
2023-12-08T03:19:57.169Z,16.98
2023-12-08T03:22:32.670Z,18.40
2023-12-08T03:25:02.821Z,19.70
2023-12-08T03:27:32.697Z,19.85
2023-12-08T03:30:00.483Z,21.20
2023-12-08T03:32:41.058Z,20.35
2023-12-08T03:35:17.573Z,17.13
2023-12-08T03:37:57.562Z,16.80
2023-12-08T03:40:33.381Z,16.05
2023-12-08T03:43:01.420Z,16.48
2023-12-08T03:45:40.892Z,16.10
2023-12-08T03:48:37.379Z,16.25
2023-12-08T03:51:10.866Z,16.45
2023-12-08T03:53:40.712Z,15.45
2023-12-08T03:56:16.228Z,16.73
2023-12-08T03:58:44.290Z,19.08
2023-12-08T04:01:18.126Z,16.48
2023-12-08T04:03:52.530Z,19.05
2023-12-08T04:06:25.635Z,18.40
2023-12-08T04:08:54.661Z,16.38
2023-12-08T04:11:24.066Z,14.25
2023-12-08T04:14:04.529Z,14.20
2023-12-08T04:16:38.972Z,14.93
2023-12-08T04:19:19.086Z,14.40
2023-12-08T04:21:50.078Z,14.00
2023-12-08T04:24:20.932Z,19.77
2023-12-08T04:26:57.970Z,23.63
2023-12-08T04:29:37.344Z,59.83
2023-12-08T04:32:32.726Z,42.03
2023-12-08T04:35:07.536Z,19.02
2023-12-08T04:37:40.685Z,15.50
2023-12-08T04:40:31.737Z,15.10
2023-12-08T04:43:02.394Z,14.88
2023-12-08T04:45:42.568Z,15.25
2023-12-08T04:48:13.020Z,15.73
2023-12-08T04:50:45.444Z,15.35
2023-12-08T04:53:31.192Z,14.73
2023-12-08T04:59:25.833Z,16.13
2023-12-08T05:02:30.828Z,16.52
2023-12-08T05:05:21.351Z,16.55
2023-12-08T05:11:14.886Z,17.88
2023-12-08T05:13:45.994Z,14.55
2023-12-08T05:16:16.643Z,12.88
2023-12-08T05:18:45.182Z,11.38
2023-12-08T05:21:16.455Z,10.57
2023-12-08T05:23:48.949Z,12.10
2023-12-08T05:26:23.153Z,17.27
2023-12-08T05:29:05.330Z,23.48
2023-12-08T05:31:34.109Z,22.20
2023-12-08T05:34:07.682Z,21.90
2023-12-08T05:36:50.912Z,18.70
2023-12-08T05:39:22.743Z,16.10
2023-12-08T05:41:57.000Z,13.57
2023-12-08T05:44:28.655Z,13.02
2023-12-08T05:47:06.812Z,12.90
2023-12-08T05:50:00.220Z,13.90
2023-12-08T05:52:35.185Z,14.35
2023-12-08T05:55:08.026Z,13.30
2023-12-08T05:57:36.575Z,13.70
2023-12-08T06:00:05.461Z,13.55
2023-12-08T06:02:34.848Z,13.75
2023-12-08T06:05:03.706Z,13.40
2023-12-08T06:07:36.240Z,12.88
2023-12-08T06:10:08.811Z,13.13
2023-12-08T06:12:47.254Z,12.18
2023-12-08T06:15:26.950Z,13.32
2023-12-08T06:18:14.628Z,13.88
2023-12-08T06:20:51.627Z,12.05
2023-12-08T06:23:24.976Z,12.15
2023-12-08T06:25:53.900Z,12.15
2023-12-08T06:28:21.814Z,11.82
2023-12-08T06:31:05.103Z,11.65
2023-12-08T06:33:33.451Z,11.63
2023-12-08T06:36:02.676Z,11.95
2023-12-08T06:38:41.172Z,12.38
2023-12-08T06:41:16.734Z,11.85
2023-12-08T06:43:56.605Z,12.15
2023-12-08T06:46:29.838Z,11.73
2023-12-08T06:49:13.736Z,11.60
2023-12-08T06:51:45.479Z,11.43
2023-12-08T06:54:12.998Z,11.90
2023-12-08T06:56:43.733Z,12.90
2023-12-08T06:59:12.449Z,12.13
2023-12-08T07:01:40.316Z,12.38
2023-12-08T07:04:09.024Z,12.65
2023-12-08T07:06:36.805Z,13.18
2023-12-08T07:09:04.843Z,13.55
2023-12-08T07:11:32.475Z,12.73
2023-12-08T07:14:05.473Z,12.02
2023-12-08T07:16:33.097Z,13.45
2023-12-08T07:19:03.622Z,13.15
2023-12-08T07:21:35.481Z,13.07
2023-12-08T07:24:03.179Z,13.82
2023-12-08T07:26:31.051Z,14.60
2023-12-08T07:29:06.715Z,12.88
2023-12-08T07:31:50.597Z,13.05
2023-12-08T07:34:22.609Z,13.05
2023-12-08T07:36:56.017Z,12.90
2023-12-08T07:39:33.039Z,14.07
2023-12-08T07:42:06.438Z,14.00
2023-12-08T07:44:42.891Z,16.48
2023-12-08T07:47:11.669Z,18.10
2023-12-08T07:49:51.470Z,15.52
2023-12-08T07:52:31.949Z,14.07
2023-12-08T07:55:01.384Z,13.57
2023-12-08T07:57:31.869Z,13.18
2023-12-08T08:00:01.732Z,13.25
2023-12-08T08:02:42.873Z,11.70
2023-12-08T08:05:21.720Z,11.38
2023-12-08T08:07:58.864Z,12.05
2023-12-08T08:10:27.871Z,12.05
2023-12-08T08:13:04.670Z,11.60
2023-12-08T08:15:36.419Z,11.10
2023-12-08T08:18:11.699Z,11.30
2023-12-08T08:20:39.720Z,11.32
2023-12-08T08:23:08.408Z,11.75
2023-12-08T08:25:36.683Z,11.43
2023-12-08T08:28:05.532Z,12.48
2023-12-08T08:31:09.870Z,22.85
2023-12-08T08:33:37.706Z,24.17
2023-12-08T08:36:06.691Z,16.17
2023-12-08T08:38:36.441Z,12.20
2023-12-08T08:41:07.020Z,11.77
2023-12-08T08:43:37.262Z,11.38
2023-12-08T08:46:07.268Z,12.25
2023-12-08T08:48:35.071Z,11.85
2023-12-08T08:51:02.565Z,11.90
2023-12-08T08:53:30.169Z,11.43
2023-12-08T08:55:57.700Z,11.55
2023-12-08T08:58:25.132Z,11.75
2023-12-08T09:00:53.042Z,11.63
2023-12-08T09:03:21.882Z,12.25
2023-12-08T09:05:49.399Z,13.00
2023-12-08T09:08:18.273Z,12.55
2023-12-08T09:10:45.746Z,12.75
2023-12-08T09:13:13.295Z,12.45
2023-12-08T09:15:43.169Z,12.52
2023-12-08T09:18:10.725Z,12.27
2023-12-08T09:20:39.582Z,11.82
2023-12-08T09:23:08.495Z,11.25
2023-12-08T09:25:35.978Z,11.60
2023-12-08T09:28:03.905Z,12.10
2023-12-08T09:30:31.701Z,11.65
2023-12-08T09:32:59.202Z,13.70
2023-12-08T09:35:26.781Z,13.30
2023-12-08T09:37:56.969Z,14.30
2023-12-08T09:40:24.488Z,13.95
2023-12-08T09:42:58.042Z,13.60
2023-12-08T09:45:25.592Z,13.48
2023-12-08T09:47:54.853Z,13.70
2023-12-08T09:50:23.391Z,13.90
2023-12-08T09:52:50.811Z,13.93
2023-12-08T09:55:19.766Z,13.20
2023-12-08T09:57:47.341Z,13.77
2023-12-08T10:00:15.664Z,13.18
2023-12-08T10:02:43.792Z,13.15
2023-12-08T10:05:12.077Z,12.68
2023-12-08T10:07:41.067Z,12.93
2023-12-08T10:10:09.675Z,13.18
2023-12-08T10:12:40.733Z,13.25
2023-12-08T10:15:11.189Z,14.00
2023-12-08T10:17:49.279Z,13.90
2023-12-08T10:20:18.266Z,13.32
2023-12-08T10:23:01.706Z,12.05
2023-12-08T10:25:31.304Z,11.75
2023-12-08T10:28:02.565Z,11.40
2023-12-08T10:30:30.143Z,10.93
2023-12-08T10:32:57.868Z,10.18
2023-12-08T10:35:27.296Z,8.85
2023-12-08T10:37:54.963Z,9.88
2023-12-08T10:40:26.009Z,10.63
2023-12-08T10:42:54.078Z,10.68
2023-12-08T10:45:23.084Z,10.52
2023-12-08T10:47:51.501Z,11.13
2023-12-08T10:50:20.162Z,10.27
2023-12-08T10:52:47.669Z,11.15
2023-12-08T10:55:15.003Z,11.93
2023-12-08T10:57:43.504Z,11.10
2023-12-08T11:00:12.592Z,11.13
2023-12-08T11:02:42.204Z,11.23
2023-12-08T11:05:12.804Z,11.95
2023-12-08T11:07:41.181Z,10.73
2023-12-08T11:10:10.249Z,11.20
2023-12-08T11:12:48.013Z,12.20
2023-12-08T11:15:18.882Z,11.70
2023-12-08T11:17:54.571Z,11.98
2023-12-08T11:20:22.616Z,10.82
2023-12-08T11:22:50.329Z,11.02
2023-12-08T11:25:23.958Z,11.27
2023-12-08T11:27:58.106Z,10.88
2023-12-08T11:30:31.746Z,17.52
2023-12-08T11:33:13.252Z,20.63
2023-12-08T11:35:41.335Z,25.02
2023-12-08T11:38:10.817Z,17.50
2023-12-08T11:40:54.826Z,12.93
2023-12-08T11:43:25.881Z,19.13
2023-12-08T11:46:03.049Z,29.98
2023-12-08T11:48:32.002Z,26.42
2023-12-08T11:51:01.271Z,16.52
2023-12-08T11:53:29.118Z,13.73
2023-12-08T11:55:58.264Z,12.05
2023-12-08T11:58:34.501Z,23.52
2023-12-08T12:01:02.003Z,21.48
2023-12-08T12:03:31.047Z,30.08
2023-12-08T12:05:59.510Z,26.00
2023-12-08T12:08:27.377Z,22.02
2023-12-08T12:10:54.895Z,18.02
2023-12-08T12:13:22.505Z,19.48
2023-12-08T12:15:50.007Z,27.13
2023-12-08T12:18:17.645Z,22.98
2023-12-08T12:20:46.699Z,19.05
2023-12-08T12:23:14.299Z,17.52
2023-12-08T12:25:42.285Z,19.40
2023-12-08T12:28:11.013Z,17.58
2023-12-08T12:30:38.536Z,21.48
2023-12-08T12:33:06.341Z,19.13
2023-12-08T12:35:33.894Z,19.08
2023-12-08T12:38:02.962Z,17.25
2023-12-08T12:40:30.559Z,15.98
2023-12-08T12:42:58.134Z,15.95
2023-12-08T12:45:29.903Z,15.40
2023-12-08T12:48:03.804Z,15.30
2023-12-08T12:50:31.215Z,14.57
2023-12-08T12:53:05.932Z,15.70
2023-12-08T12:55:33.758Z,13.73
2023-12-08T12:58:01.632Z,11.55
2023-12-08T13:00:34.537Z,17.88
2023-12-08T13:03:09.417Z,17.35
2023-12-08T13:05:46.570Z,12.43
2023-12-08T13:08:16.995Z,11.63
2023-12-08T13:10:45.429Z,11.85
2023-12-08T13:13:13.666Z,11.02
2023-12-08T13:15:41.704Z,11.07
2023-12-08T13:18:09.804Z,11.45
2023-12-08T13:20:37.825Z,11.75
2023-12-08T13:23:05.175Z,12.18
2023-12-08T13:25:33.970Z,13.07
2023-12-08T13:28:01.911Z,13.27
2023-12-08T13:30:29.468Z,12.73
2023-12-08T13:32:57.423Z,13.30
2023-12-08T13:35:25.157Z,12.93
2023-12-08T13:37:52.572Z,14.32
2023-12-08T13:40:19.989Z,14.90
2023-12-08T13:42:48.861Z,15.95
2023-12-08T13:45:16.551Z,15.55
2023-12-08T13:47:44.900Z,14.90
2023-12-08T13:50:16.367Z,14.13
2023-12-08T13:52:43.957Z,13.80
2023-12-08T13:55:11.484Z,13.38
2023-12-08T13:57:41.674Z,12.38
2023-12-08T14:00:12.733Z,13.43
2023-12-08T14:02:40.319Z,13.82
2023-12-08T14:05:12.631Z,12.93
2023-12-08T14:07:40.155Z,13.15
2023-12-08T14:10:08.827Z,12.98
2023-12-08T14:12:36.892Z,12.57
2023-12-08T14:15:05.208Z,13.48
2023-12-08T14:17:34.146Z,12.55
2023-12-08T14:20:02.596Z,13.05
2023-12-08T14:22:30.110Z,12.68
2023-12-08T14:24:57.766Z,14.02
2023-12-08T14:27:25.572Z,13.30
2023-12-08T14:29:53.303Z,13.63
2023-12-08T14:32:23.810Z,13.00
2023-12-08T14:34:54.970Z,13.40
2023-12-08T14:37:22.466Z,13.55
2023-12-08T14:39:50.271Z,13.05
2023-12-08T14:42:19.753Z,13.75
2023-12-08T14:44:47.205Z,13.13
2023-12-08T14:47:14.668Z,12.80
2023-12-08T14:49:43.175Z,13.07
2023-12-08T14:52:11.990Z,12.85
2023-12-08T14:54:39.529Z,12.13
2023-12-08T14:57:07.637Z,13.43
2023-12-08T14:59:35.618Z,12.50
2023-12-08T15:02:03.080Z,13.48
2023-12-08T15:04:31.132Z,13.07
2023-12-08T15:06:58.573Z,13.02
2023-12-08T15:09:27.466Z,14.07
2023-12-08T15:11:55.030Z,14.35
2023-12-08T15:14:22.456Z,14.32
2023-12-08T15:16:49.870Z,16.10
2023-12-08T15:19:17.996Z,17.92
2023-12-08T15:21:45.509Z,18.58
2023-12-08T15:24:13.027Z,17.67
2023-12-08T15:26:44.928Z,17.27
2023-12-08T15:29:12.365Z,15.85
2023-12-08T15:31:40.732Z,16.75
2023-12-08T15:34:09.621Z,18.23
2023-12-08T15:36:42.420Z,16.75
2023-12-08T15:39:10.614Z,17.42
2023-12-08T15:41:43.735Z,16.88
2023-12-08T15:44:12.973Z,16.42
2023-12-08T15:46:41.457Z,17.45
2023-12-08T15:49:09.009Z,17.70
2023-12-08T15:51:44.681Z,17.60
2023-12-08T15:54:12.188Z,17.45
2023-12-08T15:56:39.820Z,17.05
2023-12-08T15:59:10.067Z,17.48
2023-12-08T16:01:37.496Z,17.98
2023-12-08T16:04:05.214Z,17.00
2023-12-08T16:06:33.992Z,17.60
2023-12-08T16:09:01.811Z,17.40
2023-12-08T16:11:29.864Z,17.48
2023-12-08T16:13:58.046Z,17.55
2023-12-08T16:16:27.023Z,18.00
2023-12-08T16:18:54.751Z,18.33
2023-12-08T16:21:27.315Z,18.48
2023-12-08T16:23:55.316Z,19.00
2023-12-08T16:26:22.953Z,18.27
2023-12-08T16:28:51.105Z,19.13
2023-12-08T16:31:18.643Z,18.10
2023-12-08T16:33:50.482Z,18.60
2023-12-08T16:36:18.643Z,20.40
2023-12-08T16:38:46.268Z,19.70
2023-12-08T16:41:18.995Z,19.20
2023-12-08T16:43:49.494Z,20.33
2023-12-08T16:46:17.367Z,20.38
2023-12-08T16:48:46.704Z,19.23
2023-12-08T16:51:14.538Z,19.30
2023-12-08T16:53:47.473Z,18.75
2023-12-08T16:56:15.886Z,19.02
2023-12-08T16:58:49.748Z,17.95
2023-12-08T17:01:17.673Z,19.13
2023-12-08T17:03:46.734Z,18.30
2023-12-08T17:06:15.523Z,17.75
2023-12-08T17:08:45.066Z,17.17
2023-12-08T17:11:12.664Z,17.35
2023-12-08T17:13:40.488Z,18.88
2023-12-08T17:16:08.696Z,20.48
2023-12-08T17:18:37.731Z,20.20
2023-12-08T17:21:07.670Z,19.75
2023-12-08T17:23:35.852Z,19.17
2023-12-08T17:26:03.760Z,19.75
2023-12-08T17:28:32.557Z,19.13
2023-12-08T17:31:00.436Z,17.25
2023-12-08T17:33:31.162Z,16.98
2023-12-08T17:36:02.832Z,17.00
2023-12-08T17:38:31.676Z,18.27
2023-12-08T17:40:59.256Z,18.00
2023-12-08T17:43:33.706Z,17.77
2023-12-08T17:46:02.179Z,18.80
2023-12-08T17:48:30.168Z,17.95
2023-12-08T17:50:59.629Z,19.35
2023-12-08T17:53:27.739Z,20.45
2023-12-08T17:55:56.827Z,21.25
2023-12-08T17:58:24.968Z,20.05
2023-12-08T18:00:52.760Z,18.80
2023-12-08T18:03:22.927Z,19.05
2023-12-08T18:05:50.647Z,21.08
2023-12-08T18:08:20.940Z,19.83
2023-12-08T18:10:48.454Z,21.30
2023-12-08T18:13:20.387Z,21.45
2023-12-08T18:15:50.354Z,21.17
2023-12-08T18:18:25.008Z,21.77
2023-12-08T18:20:55.464Z,20.33
2023-12-08T18:23:23.369Z,21.60
2023-12-08T18:25:53.248Z,20.95
2023-12-08T18:28:57.783Z,19.17
2023-12-08T18:31:23.082Z,18.80
2023-12-08T18:34:05.057Z,18.35
2023-12-08T18:36:38.846Z,18.15
2023-12-08T18:39:09.345Z,18.05
2023-12-08T18:41:46.399Z,19.35
2023-12-08T18:44:30.858Z,27.05
2023-12-08T18:47:10.190Z,37.42
2023-12-08T18:49:37.888Z,28.27
2023-12-08T18:52:08.280Z,22.13
2023-12-08T18:54:39.149Z,18.35
2023-12-08T18:57:09.708Z,20.48
2023-12-08T18:59:38.891Z,22.98
2023-12-08T19:02:06.472Z,22.27
2023-12-08T19:04:34.761Z,23.88
2023-12-08T19:07:05.409Z,28.92
2023-12-08T19:09:36.436Z,25.77
2023-12-08T19:12:07.674Z,25.10
2023-12-08T19:14:35.233Z,31.73
2023-12-08T19:17:08.322Z,29.05
2023-12-08T19:19:35.879Z,26.27
2023-12-08T19:22:03.812Z,24.33
2023-12-08T19:24:31.773Z,20.10
2023-12-08T19:26:59.481Z,18.58
2023-12-08T19:29:28.483Z,18.38
2023-12-08T19:31:56.692Z,18.63
2023-12-08T19:34:28.031Z,18.50
2023-12-08T19:36:55.742Z,18.85
2023-12-08T19:39:27.600Z,18.67
2023-12-08T19:42:02.623Z,19.80
2023-12-08T19:44:30.109Z,19.35
2023-12-08T19:46:57.650Z,18.63
2023-12-08T19:49:26.577Z,19.10
2023-12-08T19:51:55.197Z,19.00
2023-12-08T19:54:22.751Z,19.33
2023-12-08T19:56:50.890Z,20.02
2023-12-08T19:59:19.527Z,18.52
2023-12-08T20:01:47.037Z,18.30
2023-12-08T20:04:15.125Z,19.42
2023-12-08T20:06:44.389Z,18.50
2023-12-08T20:09:12.147Z,19.10
2023-12-08T20:11:40.249Z,19.17
2023-12-08T20:14:09.351Z,19.90
2023-12-08T20:16:40.754Z,19.45
2023-12-08T20:19:08.198Z,20.73
2023-12-08T20:21:36.529Z,22.73
2023-12-08T20:24:06.428Z,20.80
2023-12-08T20:26:36.480Z,20.38
2023-12-08T20:29:06.098Z,20.88
2023-12-08T20:31:34.909Z,20.40
2023-12-08T20:34:04.061Z,20.77
2023-12-08T20:36:40.688Z,20.23
2023-12-08T20:39:10.815Z,19.55
2023-12-08T20:41:47.357Z,21.23
2023-12-08T20:44:15.757Z,23.67
2023-12-08T20:46:43.652Z,23.48
2023-12-08T20:49:11.193Z,23.20
2023-12-08T20:51:41.823Z,23.30
2023-12-08T20:54:10.869Z,21.35
2023-12-08T20:56:38.633Z,19.88
2023-12-08T20:59:06.346Z,19.25
2023-12-08T21:01:34.524Z,20.25
2023-12-08T21:04:02.440Z,19.08
2023-12-08T21:06:30.924Z,20.48
2023-12-08T21:08:58.543Z,20.23
2023-12-08T21:11:28.001Z,21.55
2023-12-08T21:13:55.746Z,21.30
2023-12-08T21:16:23.671Z,21.17
2023-12-08T21:18:51.330Z,22.55
2023-12-08T21:21:31.627Z,21.85
2023-12-08T21:24:19.332Z,20.83
2023-12-08T21:26:57.754Z,21.08
2023-12-08T21:29:39.523Z,22.90
2023-12-08T21:32:18.462Z,21.85
2023-12-08T21:35:12.195Z,20.20
2023-12-08T21:37:42.103Z,21.23
2023-12-08T21:40:14.436Z,20.02
2023-12-08T21:42:44.015Z,20.88
2023-12-08T21:45:15.041Z,22.85
2023-12-08T21:47:48.690Z,21.20
2023-12-08T21:53:14.711Z,22.20
2023-12-08T21:55:45.289Z,23.83
2023-12-08T21:58:18.798Z,29.38
2023-12-08T22:00:49.414Z,29.73
2023-12-08T22:03:31.596Z,30.02
2023-12-08T22:06:03.944Z,29.60
2023-12-08T22:08:43.302Z,25.85
2023-12-08T22:11:28.337Z,24.35
2023-12-08T22:14:00.662Z,23.45
2023-12-08T22:16:28.266Z,19.75
2023-12-08T22:18:56.428Z,25.25
2023-12-08T22:21:26.168Z,26.38
2023-12-08T22:23:58.339Z,22.10
2023-12-08T22:26:29.884Z,21.27
2023-12-08T22:28:58.624Z,21.67
2023-12-08T22:31:26.111Z,22.05
2023-12-08T22:33:55.700Z,21.67
2023-12-08T22:36:23.838Z,21.25
2023-12-08T22:38:51.300Z,22.08
2023-12-08T22:41:24.086Z,21.88
2023-12-08T22:43:51.532Z,21.55
2023-12-08T22:46:21.938Z,21.85
2023-12-08T22:48:50.896Z,22.17
2023-12-08T22:51:29.600Z,21.20
2023-12-08T22:54:15.556Z,21.85
2023-12-08T22:56:46.696Z,23.17
2023-12-08T22:59:16.108Z,24.40
2023-12-08T23:01:47.020Z,24.15
2023-12-08T23:04:15.812Z,22.73
2023-12-08T23:06:44.955Z,23.35
2023-12-08T23:09:12.580Z,23.10
2023-12-08T23:11:39.973Z,22.65
2023-12-08T23:14:12.046Z,22.42
2023-12-08T23:16:39.434Z,24.23
2023-12-08T23:19:08.321Z,22.48
2023-12-08T23:21:36.235Z,23.33
2023-12-08T23:24:04.006Z,23.20
2023-12-08T23:26:31.387Z,23.17
2023-12-08T23:28:58.802Z,22.58
2023-12-08T23:31:26.178Z,23.58
2023-12-08T23:33:53.820Z,22.15
2023-12-08T23:36:23.176Z,23.70
2023-12-08T23:38:50.785Z,20.70
2023-12-08T23:41:18.239Z,20.10
2023-12-08T23:43:45.765Z,20.85
2023-12-08T23:46:13.479Z,21.70
2023-12-08T23:48:41.997Z,21.75
2023-12-08T23:51:09.632Z,21.23
2023-12-08T23:53:38.523Z,20.30
2023-12-08T23:56:09.602Z,21.65
2023-12-08T23:58:37.273Z,22.25
